Time;durP1;ratioP1;P1;durP2;ratioP2;P2;SDS_P1;SDS_P2;PMS_P1;PMS_P2;Temp;Humidity;BMP_temperature;BMP_pressure;BME280_temperature;BME280_humidity;BME280_pressure;Samples;Min_cycle;Max_cycle;Signal;HPM_P1;HPM_P2
2022/06/24 00:00:43;;;;;;;5.6;8.3;;;;;;;13.7;100;98510;;;;
2022/06/24 00:10:43;;;;;;;5.6;8.3;;;;;;;13.5;100;98520;;;;
2022/06/24 00:20:43;;;;;;;5.6;8.3;;;;;;;13.3;100;98540;;;;
2022/06/24 00:31:43;;;;;;;5.1;6.9;;;;;;;13.1;100;98530;;;;
2022/06/24 00:41:43;;;;;;;5.1;6.9;;;;;;;12.9;100;98530;;;;
2022/06/24 00:52:43;;;;;;;5.1;6.9;;;;;;;12.9;100;98530;;;;
2022/06/24 01:02:43;;;;;;;4.9;9.1;;;;;;;12.9;100;98520;;;;
2022/06/24 01:13:43;;;;;;;;;;;;;;;;;;;;;
2022/06/24 01:24:43;;;;;;;4.9;9.1;;;;;;;12.4;100;98500;;;;
2022/06/24 01:35:43;;;;;;;4.6;10.7;;;;;;;12.3;100;98500;;;;
2022/06/24 01:45:43;;;;;;;4.6;10.7;;;;;;;12.2;100;98500;;;;
2022/06/24 01:55:43;;;;;;;4.6;10.7;;;;;;;12.1;100;98500;;;;
2022/06/24 02:05:43;;;;;;;5.7;10.7;;;;;;;12;100;98490;;;;
2022/06/24 02:16:43;;;;;;;5.7;10.7;;;;;;;11.8;100;98500;;;;
2022/06/24 02:26:43;;;;;;;5.7;10.7;;;;;;;11.8;100;98490;;;;
2022/06/24 02:37:43;;;;;;;4.9;8.1;;;;;;;11.6;100;98490;;;;
2022/06/24 02:48:43;;;;;;;4.9;8.1;;;;;;;11.6;100;98490;;;;
2022/06/24 02:59:43;;;;;;;5.8;8;;;;;;;11.6;100;98500;;;;
2022/06/24 03:09:43;;;;;;;5.8;8;;;;;;;11.6;100;98510;;;;
2022/06/24 03:19:43;;;;;;;5.8;8;;;;;;;11.8;100;98510;;;;
2022/06/24 03:30:43;;;;;;;5.5;8.8;;;;;;;11.9;100;98510;;;;
2022/06/24 03:41:43;;;;;;;5.5;8.8;;;;;;;12.2;100;98500;;;;
2022/06/24 03:51:43;;;;;;;5.5;8.8;;;;;;;12.6;100;98510;;;;
2022/06/24 04:01:43;;;;;;;5;7.3;;;;;;;12.9;100;98520;;;;
2022/06/24 04:12:43;;;;;;;5;7.3;;;;;;;13.4;100;98530;;;;
2022/06/24 04:22:43;;;;;;;5;7.3;;;;;;;13.9;100;98540;;;;
2022/06/24 04:32:43;;;;;;;6;8;;;;;;;14.5;100;98530;;;;
2022/06/24 04:43:43;;;;;;;6;8;;;;;;;15;100;98550;;;;
2022/06/24 04:54:43;;;;;;;6;8;;;;;;;15.6;100;98540;;;;
2022/06/24 05:04:43;;;;;;;6.2;10.3;;;;;;;16.1;100;98540;;;;
2022/06/24 05:15:43;;;;;;;6.2;10.3;;;;;;;16.8;100;98530;;;;
2022/06/24 05:26:43;;;;;;;6.2;10.3;;;;;;;17.4;100;98540;;;;
2022/06/24 05:36:43;;;;;;;4.4;7.9;;;;;;;17.9;100;98540;;;;
2022/06/24 05:46:43;;;;;;;4.4;7.9;;;;;;;18.4;100;98540;;;;
2022/06/24 05:57:43;;;;;;;4.4;7.9;;;;;;;18.9;100;98540;;;;
2022/06/24 06:08:43;;;;;;;3.2;5.8;;;;;;;19.6;100;98540;;;;
2022/06/24 06:19:43;;;;;;;3.2;5.8;;;;;;;20.1;100;98550;;;;
2022/06/24 06:29:43;;;;;;;3.4;7.3;;;;;;;20.4;100;98550;;;;
2022/06/24 06:39:43;;;;;;;3.4;7.3;;;;;;;20.6;100;98550;;;;
2022/06/24 06:49:43;;;;;;;3.4;7.3;;;;;;;21.3;100;98540;;;;
2022/06/24 07:00:43;;;;;;;2.9;5.8;;;;;;;21.7;99.6;98540;;;;
2022/06/24 07:11:43;;;;;;;2.9;5.8;;;;;;;22.1;94.4;98540;;;;
2022/06/24 07:21:43;;;;;;;2.9;5.8;;;;;;;22.4;93.3;98540;;;;
2022/06/24 07:31:47;;;;;;;1.8;4.2;;;;;;;22.5;94.7;98540;;;;
2022/06/24 07:42:43;;;;;;;1.8;4.2;;;;;;;22.9;95.9;98530;;;;
2022/06/24 07:53:43;;;;;;;1.8;4.2;;;;;;;23.2;94.3;98520;;;;
2022/06/24 08:03:43;;;;;;;2.5;6.6;;;;;;;23.3;97.8;98510;;;;
2022/06/24 08:14:43;;;;;;;2.5;6.6;;;;;;;23.4;91.4;98490;;;;
2022/06/24 08:24:44;;;;;;;2.5;6.6;;;;;;;23.7;89;98490;;;;
2022/06/24 08:34:43;;;;;;;1.6;4;;;;;;;23.8;85.6;98480;;;;
2022/06/24 08:44:43;;;;;;;1.6;4;;;;;;;24.1;91.1;98480;;;;
2022/06/24 08:54:44;;;;;;;1.6;4;;;;;;;24.7;85.2;98470;;;;
2022/06/24 09:05:43;;;;;;;1.5;3.3;;;;;;;24.6;81.5;98460;;;;
2022/06/24 09:16:43;;;;;;;1.5;3.3;;;;;;;24.8;80.1;98450;;;;
2022/06/24 09:26:44;;;;;;;1.5;3.3;;;;;;;24.9;81.1;98440;;;;
2022/06/24 09:36:44;;;;;;;1.5;2.9;;;;;;;24.9;73.2;98450;;;;
2022/06/24 09:47:43;;;;;;;1.5;2.9;;;;;;;25;71.4;98430;;;;
2022/06/24 10:00:40;;;;;;;1.5;2.9;;;;;;;25;69;98430;;;;
2022/06/24 10:09:43;;;;;;;1.9;4.1;;;;;;;25.5;67.1;98410;;;;
2022/06/24 10:20:43;;;;;;;1.9;4.1;;;;;;;25.4;65.9;98400;;;;
2022/06/24 10:30:43;;;;;;;1.6;3.5;;;;;;;25.3;65.8;98400;;;;
2022/06/24 10:41:44;;;;;;;1.6;3.5;;;;;;;25.6;64;98390;;;;
2022/06/24 10:52:46;;;;;;;1.6;3.5;;;;;;;26.3;63;98390;;;;
2022/06/24 11:02:43;;;;;;;1.4;3.4;;;;;;;26.3;62.6;98370;;;;
2022/06/24 11:13:43;;;;;;;1.4;3.4;;;;;;;26.7;62;98370;;;;
2022/06/24 11:23:43;;;;;;;1.4;3.4;;;;;;;26.4;60.4;98340;;;;
2022/06/24 11:33:43;;;;;;;1.3;4.7;;;;;;;26.9;62.6;98340;;;;
2022/06/24 11:44:43;;;;;;;1.3;4.7;;;;;;;26.9;58.2;98330;;;;
2022/06/24 11:54:43;;;;;;;1.3;4.7;;;;;;;27.3;59.4;98330;;;;
2022/06/24 12:04:43;;;;;;;1.4;4;;;;;;;27.2;61.4;98310;;;;
2022/06/24 12:14:43;;;;;;;1.4;4;;;;;;;27.6;64.1;98310;;;;
2022/06/24 12:25:44;;;;;;;1.4;4;;;;;;;27.5;60.7;98280;;;;
2022/06/24 12:36:43;;;;;;;1.7;3.7;;;;;;;27.9;57.7;98280;;;;
2022/06/24 12:57:44;;;;;;;1.7;3.7;;;;;;;28.4;60.2;98250;;;;
2022/06/24 13:07:43;;;;;;;1.4;5.3;;;;;;;28.1;58.4;98250;;;;
2022/06/24 13:17:44;;;;;;;1.4;5.3;;;;;;;27.8;58.7;98250;;;;
2022/06/24 13:28:44;;;;;;;1.4;5.3;;;;;;;28.5;61.4;98240;;;;
2022/06/24 13:39:43;;;;;;;1.1;3.4;;;;;;;29.1;57.7;98240;;;;
2022/06/24 13:49:43;;;;;;;1.1;3.4;;;;;;;28.7;59.5;98230;;;;
2022/06/24 14:00:44;;;;;;;1.1;2.3;;;;;;;29;56.7;98220;;;;
2022/06/24 14:11:43;;;;;;;1.1;2.3;;;;;;;29.3;57.8;98210;;;;
2022/06/24 14:21:44;;;;;;;1.1;2.3;;;;;;;29.2;57.4;98200;;;;
2022/06/24 14:32:44;;;;;;;1;2.2;;;;;;;29.2;57.9;98190;;;;
2022/06/24 14:43:44;;;;;;;1;2.2;;;;;;;29.9;58.4;98170;;;;
2022/06/24 14:54:44;;;;;;;1;2.2;;;;;;;29.9;56.3;98160;;;;
2022/06/24 15:05:44;;;;;;;1.3;6.8;;;;;;;31.6;53.9;98160;;;;
2022/06/24 15:15:44;;;;;;;1.3;6.8;;;;;;;32;53.3;98150;;;;
2022/06/24 15:26:44;;;;;;;1.3;6.8;;;;;;;32.6;49.7;98140;;;;
2022/06/24 15:36:44;;;;;;;1.6;3.7;;;;;;;31.2;51;98130;;;;
2022/06/24 15:46:43;;;;;;;1.6;3.7;;;;;;;30.3;54.2;98120;;;;
2022/06/24 15:56:44;;;;;;;1.6;3.7;;;;;;;31;53.3;98110;;;;
2022/06/24 16:06:44;;;;;;;1.7;5.5;;;;;;;32.1;52.4;98100;;;;
2022/06/24 16:17:44;;;;;;;1.7;5.5;;;;;;;31.5;53.2;98100;;;;
2022/06/24 16:28:49;;;;;;;1.7;5.5;;;;;;;33.9;48.8;98090;;;;
2022/06/24 16:37:44;;;;;;;1.2;3.1;;;;;;;30.3;54.7;98080;;;;
2022/06/24 16:47:44;;;;;;;1.2;3.1;;;;;;;31;53.8;98080;;;;
2022/06/24 16:58:44;;;;;;;1.2;3.1;;;;;;;31.6;51.8;98080;;;;
2022/06/24 17:08:44;;;;;;;1.6;3.8;;;;;;;31;52.1;98070;;;;
2022/06/24 17:18:44;;;;;;;1.6;3.8;;;;;;;28.3;60.9;98060;;;;
2022/06/24 17:28:45;;;;;;;1.6;3.8;;;;;;;28.3;61.7;98070;;;;
2022/06/24 17:38:44;;;;;;;3.2;6.3;;;;;;;28.9;59.3;98080;;;;
2022/06/24 17:48:46;;;;;;;3.2;6.3;;;;;;;27.9;62;98090;;;;
2022/06/24 17:59:44;;;;;;;3.2;6.3;;;;;;;26.5;67.3;98090;;;;
2022/06/24 18:09:44;;;;;;;4.3;6.3;;;;;;;25.6;70.8;98090;;;;
2022/06/24 18:19:44;;;;;;;4.3;6.3;;;;;;;24.6;76.1;98080;;;;
2022/06/24 18:30:44;;;;;;;9;10.8;;;;;;;24.2;78.1;98070;;;;
2022/06/24 18:41:44;;;;;;;9;10.8;;;;;;;23.7;80.4;98070;;;;
2022/06/24 18:51:44;;;;;;;9;10.8;;;;;;;23;87.3;98060;;;;
2022/06/24 19:02:44;;;;;;;5.1;8.8;;;;;;;22.8;87;98070;;;;
2022/06/24 19:12:44;;;;;;;5.1;8.8;;;;;;;22.5;88.7;98070;;;;
2022/06/24 19:23:44;;;;;;;5.1;8.8;;;;;;;22.3;87.9;98070;;;;
2022/06/24 19:33:46;;;;;;;6.3;9.8;;;;;;;22.2;88.2;98070;;;;
2022/06/24 19:44:44;;;;;;;6.3;9.8;;;;;;;22;89.8;98080;;;;
2022/06/24 19:54:44;;;;;;;6.3;9.8;;;;;;;21.8;91.1;98070;;;;
2022/06/24 20:05:48;;;;;;;6.6;11.3;;;;;;;21.6;92.5;98070;;;;
2022/06/24 20:15:44;;;;;;;6.6;11.3;;;;;;;21.3;95.9;98060;;;;
2022/06/24 20:26:44;;;;;;;6.6;11.3;;;;;;;21;96.5;98060;;;;
2022/06/24 20:36:44;;;;;;;6.5;10.4;;;;;;;20.8;97.8;98060;;;;
2022/06/24 20:47:44;;;;;;;6.5;10.4;;;;;;;20.6;99;98060;;;;
2022/06/24 20:58:44;;;;;;;6.5;10.4;;;;;;;20.5;100;98050;;;;
2022/06/24 21:08:44;;;;;;;6.1;10.1;;;;;;;20.3;100;98060;;;;
2022/06/24 21:18:44;;;;;;;6.1;10.1;;;;;;;20.2;100;98080;;;;
2022/06/24 21:28:44;;;;;;;6.1;10.1;;;;;;;20.1;100;98080;;;;
2022/06/24 21:39:44;;;;;;;4.2;6.9;;;;;;;19.9;100;98080;;;;
2022/06/24 21:50:44;;;;;;;4.2;6.9;;;;;;;19.7;100;98090;;;;
2022/06/24 22:00:46;;;;;;;3.3;6.5;;;;;;;19.7;100;98100;;;;
2022/06/24 22:11:44;;;;;;;3.3;6.5;;;;;;;19.4;100;98100;;;;
2022/06/24 22:22:44;;;;;;;3.3;6.5;;;;;;;19;100;98100;;;;
2022/06/24 22:32:44;;;;;;;3.5;8.8;;;;;;;18.9;100;98100;;;;
2022/06/24 22:42:45;;;;;;;3.5;8.8;;;;;;;18.7;100;98110;;;;
2022/06/24 22:52:44;;;;;;;3.5;8.8;;;;;;;18.3;100;98110;;;;
2022/06/24 23:03:44;;;;;;;4;7.1;;;;;;;18.1;100;98110;;;;
2022/06/24 23:14:44;;;;;;;4;7.1;;;;;;;17.7;100;98100;;;;
2022/06/24 23:24:44;;;;;;;4;7.1;;;;;;;17.6;100;98110;;;;
2022/06/24 23:35:44;;;;;;;4.8;7;;;;;;;17.2;100;98100;;;;
2022/06/24 23:46:44;;;;;;;4.8;7;;;;;;;17;100;98090;;;;
2022/06/24 23:56:44;;;;;;;4.8;7;;;;;;;16.9;100;98090;;;;
